Time;durP1;ratioP1;P1;durP2;ratioP2;P2;SDS_P1;SDS_P2;PMS_P1;PMS_P2;Temp;Humidity;BMP_temperature;BMP_pressure;BME280_temperature;BME280_humidity;BME280_pressure;Samples;Min_cycle;Max_cycle;Signal;HPM_P1;HPM_P2
2023/09/06 00:02:04;;;;;;;2.90;0.70;;;;;;;25.93;35.90;100839.59;5011109;28;20077;-74
2023/09/06 00:04:32;;;;;;;2.47;0.80;;;;;;;25.87;34.67;100834.47;5024557;28;20033;-69
2023/09/06 00:07:01;;;;;;;1.60;0.70;;;;;;;25.81;35.34;100837.28;5024793;28;20042;-76
2023/09/06 00:09:31;;;;;;;0.80;0.50;;;;;;;25.79;35.43;100834.66;5025903;28;20049;-77
2023/09/06 00:11:59;;;;;;;1.27;0.60;;;;;;;25.78;36.41;100840.03;5006394;28;20050;-76
2023/09/06 00:14:29;;;;;;;0.73;0.45;;;;;;;25.73;36.55;100836.69;5003512;28;20077;-76
2023/09/06 00:16:58;;;;;;;1.38;0.60;;;;;;;25.68;35.83;100835.03;5002633;28;20058;-76
2023/09/06 00:19:26;;;;;;;1.05;0.52;;;;;;;25.68;35.90;100836.81;4996276;28;20046;-77
2023/09/06 00:21:56;;;;;;;1.75;0.65;;;;;;;25.63;36.02;100841.38;5002198;28;20101;-72
2023/09/06 00:24:25;;;;;;;1.38;0.52;;;;;;;25.60;35.72;100841.50;5005138;28;20536;-74
2023/09/06 00:26:58;;;;;;;2.22;0.70;;;;;;;25.57;35.39;100842.47;5003384;28;20043;-76
2023/09/06 00:29:27;;;;;;;1.42;0.60;;;;;;;25.43;35.54;100828.78;5008069;28;20109;-76
2023/09/06 00:31:58;;;;;;;1.50;0.60;;;;;;;25.42;35.89;100838.50;5003260;28;20109;-76
2023/09/06 00:34:27;;;;;;;0.60;0.40;;;;;;;25.35;36.29;100842.25;4997207;28;20053;-74
2023/09/06 00:36:55;;;;;;;2.95;0.50;;;;;;;25.29;36.62;100843.31;5007371;28;20045;-72
2023/09/06 00:39:28;;;;;;;0.52;0.50;;;;;;;25.29;37.13;100839.81;5009014;28;20519;-76
2023/09/06 00:42:00;;;;;;;;;;;;;;;25.27;37.04;100839.84;5013307;28;20569;-73
2023/09/06 00:44:28;;;;;;;0.90;0.65;;;;;;;25.26;36.24;100843.38;5012930;28;20643;-74
2023/09/06 00:46:59;;;;;;;2.13;0.80;;;;;;;25.22;36.15;100836.47;5011056;28;20057;-73
2023/09/06 00:49:27;;;;;;;2.30;0.60;;;;;;;25.16;36.51;100841.03;5021809;28;20471;-75
2023/09/06 00:51:59;;;;;;;2.33;0.57;;;;;;;25.08;36.16;100836.84;5009254;28;20046;-72
2023/09/06 00:54:28;;;;;;;2.45;0.80;;;;;;;25.01;37.10;100837.91;5009557;28;20069;-75
2023/09/06 00:56:58;;;;;;;1.17;0.70;;;;;;;24.86;37.09;100827.78;5011975;28;20069;-73
2023/09/06 00:59:34;;;;;;;0.98;0.50;;;;;;;24.82;38.05;100829.63;5010253;28;20070;-72
2023/09/06 01:02:03;;;;;;;2.22;0.80;;;;;;;24.75;39.19;100825.44;5006139;28;20481;-73
2023/09/06 01:04:32;;;;;;;1.95;0.73;;;;;;;24.69;38.95;100830.88;5008553;28;20072;-70
2023/09/06 01:07:02;;;;;;;1.80;0.60;;;;;;;24.63;38.89;100831.09;5002448;28;20046;-73
2023/09/06 01:09:31;;;;;;;1.42;0.50;;;;;;;24.55;38.80;100827.75;5023952;28;20484;-72
2023/09/06 01:12:03;;;;;;;1.92;0.57;;;;;;;24.47;38.86;100833.28;5003592;28;20064;-71
2023/09/06 01:14:32;;;;;;;1.73;0.70;;;;;;;24.40;39.21;100829.03;5007082;28;20084;-70
2023/09/06 01:17:01;;;;;;;3.42;0.60;;;;;;;24.32;38.95;100836.28;5005454;28;20046;-71
2023/09/06 01:19:33;;;;;;;1.38;0.63;;;;;;;24.15;38.93;100828.81;5008064;28;20053;-73
2023/09/06 01:22:10;;;;;;;3.95;0.75;;;;;;;24.04;41.02;100831.72;5008052;28;20287;-73
2023/09/06 01:24:41;;;;;;;0.80;0.50;;;;;;;23.95;40.48;100827.50;5010438;28;21505;-71
2023/09/06 01:27:09;;;;;;;1.08;0.60;;;;;;;23.87;39.67;100821.56;5008799;28;20097;-72
2023/09/06 01:29:38;;;;;;;1.45;0.70;;;;;;;23.77;40.19;100828.81;5006867;28;20464;-73
2023/09/06 01:32:12;;;;;;;1.05;0.82;;;;;;;23.70;40.46;100821.06;5007969;28;20496;-71
2023/09/06 01:34:40;;;;;;;1.27;0.60;;;;;;;23.62;42.15;100824.75;5003270;28;20116;-72
2023/09/06 01:37:09;;;;;;;2.70;0.60;;;;;;;23.60;41.52;100825.69;4999992;28;20314;-74
2023/09/06 01:39:39;;;;;;;2.75;0.80;;;;;;;23.56;42.49;100830.16;5005954;28;20057;-74
2023/09/06 01:42:07;;;;;;;1.05;0.60;;;;;;;23.51;42.00;100818.00;5002827;28;20108;-74
2023/09/06 01:44:38;;;;;;;1.10;0.70;;;;;;;23.42;41.95;100817.28;5015677;28;20447;-74
2023/09/06 01:47:07;;;;;;;0.90;0.70;;;;;;;23.34;40.96;100821.88;5005860;28;20049;-74
2023/09/06 01:49:36;;;;;;;0.95;0.70;;;;;;;23.26;42.26;100821.16;5021616;28;20050;-71
2023/09/06 01:52:05;;;;;;;1.27;0.90;;;;;;;23.19;42.00;100820.44;5003307;28;20046;-73
2023/09/06 01:54:34;;;;;;;1.73;0.75;;;;;;;23.13;42.51;100823.19;5003765;28;20061;-74
2023/09/06 01:57:06;;;;;;;2.22;0.73;;;;;;;23.07;42.97;100826.00;5010182;28;20049;-74
2023/09/06 01:59:35;;;;;;;1.08;0.80;;;;;;;23.02;43.51;100814.66;5003533;28;20520;-74
2023/09/06 02:02:04;;;;;;;1.77;0.77;;;;;;;22.96;44.08;100820.03;5010162;28;20555;-73
2023/09/06 02:04:33;;;;;;;2.03;0.60;;;;;;;22.90;44.63;100814.88;4998634;28;20053;-73
2023/09/06 02:07:02;;;;;;;3.42;0.70;;;;;;;22.84;43.48;100809.72;5012123;28;20126;-72
2023/09/06 02:09:31;;;;;;;1.20;0.88;;;;;;;22.74;44.14;100807.25;5010251;28;20058;-73
2023/09/06 02:11:59;;;;;;;2.85;0.80;;;;;;;22.61;42.98;100803.16;5003493;28;20046;-74
2023/09/06 02:14:29;;;;;;;1.17;0.80;;;;;;;22.52;43.76;100800.69;5007913;28;20057;-75
2023/09/06 02:17:00;;;;;;;2.70;0.70;;;;;;;22.44;43.68;100803.44;5007502;28;20049;-74
2023/09/06 02:19:29;;;;;;;1.98;0.80;;;;;;;22.33;43.90;100798.41;4993194;28;20053;-74
2023/09/06 02:22:08;;;;;;;1.38;0.70;;;;;;;22.24;43.01;100800.31;4997525;28;20076;-74
2023/09/06 02:24:49;;;;;;;0.93;0.60;;;;;;;22.13;44.45;100803.13;5005623;28;20042;-73
2023/09/06 02:27:18;;;;;;;0.80;0.60;;;;;;;22.03;43.59;100797.13;5003570;28;20072;-73
2023/09/06 02:29:52;;;;;;;1.38;0.75;;;;;;;21.95;44.33;100799.91;5008380;28;20081;-73
2023/09/06 02:32:27;;;;;;;2.80;0.98;;;;;;;21.85;44.37;100798.31;4997113;28;20053;-74
2023/09/06 02:35:00;;;;;;;1.38;0.60;;;;;;;21.78;44.62;100803.69;4995850;28;20062;-77
2023/09/06 02:37:29;;;;;;;1.92;0.70;;;;;;;21.68;46.62;100798.56;4994560;28;20467;-73
2023/09/06 02:40:02;;;;;;;2.97;0.70;;;;;;;21.61;48.77;100803.97;4992044;28;20081;-74
2023/09/06 02:42:36;;;;;;;2.70;0.93;;;;;;;21.50;46.74;100799.72;5002916;28;20504;-73
2023/09/06 02:45:09;;;;;;;1.88;0.70;;;;;;;21.36;47.81;100804.28;5008350;28;20052;-73
2023/09/06 02:47:47;;;;;;;1.42;0.80;;;;;;;21.30;49.95;100801.75;5009388;28;20468;-74
2023/09/06 02:50:17;;;;;;;1.85;1.00;;;;;;;21.18;52.09;100809.81;5004833;28;20042;-73
2023/09/06 02:52:46;;;;;;;3.67;0.80;;;;;;;21.09;51.61;100810.78;5007033;28;20519;-72
2023/09/06 02:55:15;;;;;;;1.23;0.65;;;;;;;20.99;51.40;100804.78;5006771;28;20042;-74
2023/09/06 02:57:45;;;;;;;2.28;0.90;;;;;;;20.92;56.03;100808.41;5003552;28;20054;-70
2023/09/06 03:00:25;;;;;;;3.72;1.17;;;;;;;20.83;53.51;100819.03;5012484;28;20056;-72
2023/09/06 03:02:58;;;;;;;1.27;0.82;;;;;;;20.69;51.75;100822.69;5006424;28;20433;-72
2023/09/06 03:05:29;;;;;;;3.95;0.85;;;;;;;20.60;52.55;100817.53;4999854;28;20053;-74
2023/09/06 03:07:58;;;;;;;1.88;1.05;;;;;;;20.53;55.21;100814.97;5007040;28;20164;-72
2023/09/06 03:10:27;;;;;;;3.08;0.95;;;;;;;20.47;55.44;100822.00;5003355;28;20485;-75
2023/09/06 03:12:58;;;;;;;1.80;0.98;;;;;;;20.40;53.57;100815.06;5004354;28;20584;-72
2023/09/06 03:15:32;;;;;;;2.05;0.80;;;;;;;20.32;50.70;100823.91;5005182;28;20096;-72
2023/09/06 03:18:02;;;;;;;3.88;1.00;;;;;;;20.27;53.73;100824.84;4999292;28;20054;-74
2023/09/06 03:20:42;;;;;;;3.78;1.05;;;;;;;20.20;52.62;100825.78;5002055;28;20058;-74
2023/09/06 03:23:18;;;;;;;1.60;0.80;;;;;;;20.09;51.57;100825.00;4993068;28;20430;-72
2023/09/06 03:25:47;;;;;;;1.58;0.85;;;;;;;20.03;52.33;100825.03;5000489;28;20049;-75
2023/09/06 03:28:16;;;;;;;1.90;0.82;;;;;;;19.97;52.97;100825.09;5005861;28;20385;-74
2023/09/06 03:30:49;;;;;;;1.52;0.70;;;;;;;19.90;51.79;100831.28;5003386;28;20427;-73
2023/09/06 03:33:17;;;;;;;1.52;0.70;;;;;;;19.83;53.54;100833.94;5003256;28;20050;-73
2023/09/06 03:35:53;;;;;;;1.48;0.55;;;;;;;19.79;54.60;100842.75;5003003;28;20520;-73
2023/09/06 03:38:25;;;;;;;1.85;0.73;;;;;;;19.76;54.16;100841.88;5004464;28;20089;-73
2023/09/06 03:41:01;;;;;;;1.38;0.73;;;;;;;19.70;53.52;100834.94;5000771;28;20068;-77
2023/09/06 03:43:31;;;;;;;1.45;1.17;;;;;;;19.66;52.75;100835.78;5000206;28;20046;-75
2023/09/06 03:46:04;;;;;;;1.13;0.80;;;;;;;19.64;52.91;100848.06;5008314;28;20061;-73
2023/09/06 03:48:35;;;;;;;2.03;0.70;;;;;;;19.58;53.11;100837.59;5013498;28;20051;-76
2023/09/06 03:51:04;;;;;;;2.05;0.70;;;;;;;19.56;52.52;100841.97;4999276;28;20061;-76
2023/09/06 03:53:37;;;;;;;3.20;0.80;;;;;;;19.51;52.59;100841.13;5006935;28;20077;-76
2023/09/06 03:56:05;;;;;;;1.40;0.57;;;;;;;19.49;53.24;100843.75;4999246;28;20052;-75
2023/09/06 03:58:37;;;;;;;1.25;0.93;;;;;;;19.45;52.66;100848.16;4998450;28;20046;-75
2023/09/06 04:01:10;;;;;;;1.08;0.98;;;;;;;19.42;53.29;100852.53;5001620;28;20046;-74
2023/09/06 04:03:40;;;;;;;1.30;0.80;;;;;;;19.41;53.07;100846.44;5001336;28;20042;-74
2023/09/06 04:06:18;;;;;;;0.80;0.70;;;;;;;19.38;52.67;100835.97;5004177;28;20045;-76
2023/09/06 04:08:50;;;;;;;3.78;1.00;;;;;;;19.24;53.36;100837.75;5019764;28;20050;-75
2023/09/06 04:11:19;;;;;;;2.08;0.65;;;;;;;19.28;56.43;100847.38;5007402;28;20050;-75
2023/09/06 04:13:51;;;;;;;2.70;0.70;;;;;;;19.21;54.94;100837.78;4999056;28;20050;-76
2023/09/06 04:16:22;;;;;;;2.10;0.80;;;;;;;19.21;54.96;100853.53;4991595;28;20137;-77
2023/09/06 04:18:52;;;;;;;4.22;0.90;;;;;;;19.18;55.44;100846.56;4996641;28;20389;-77
2023/09/06 04:21:22;;;;;;;3.30;0.80;;;;;;;19.17;55.34;100839.56;4999633;28;20054;-78
2023/09/06 04:23:53;;;;;;;3.20;0.90;;;;;;;19.11;57.19;100846.59;4995128;28;20125;-77
2023/09/06 04:26:25;;;;;;;1.77;0.95;;;;;;;19.04;57.51;100845.75;5000030;28;20052;-79
2023/09/06 04:28:53;;;;;;;1.85;0.73;;;;;;;18.98;57.56;100846.63;5000340;28;20073;-79
2023/09/06 04:31:24;;;;;;;3.08;0.75;;;;;;;18.93;58.12;100847.53;4994435;28;20504;-80
2023/09/06 04:33:53;;;;;;;2.08;0.80;;;;;;;18.89;56.66;100845.78;5005106;28;20073;-81
2023/09/06 04:36:24;;;;;;;2.80;1.08;;;;;;;18.86;57.90;100849.28;5003029;28;20049;-76
2023/09/06 04:38:56;;;;;;;2.00;0.70;;;;;;;18.75;58.49;100837.94;4999213;28;20085;-76
2023/09/06 04:41:24;;;;;;;1.80;0.73;;;;;;;18.68;58.20;100841.44;5007110;28;20045;-79
2023/09/06 04:43:53;;;;;;;1.92;0.80;;;;;;;18.61;57.83;100835.34;5013855;28;20512;-77
2023/09/06 04:46:23;;;;;;;2.63;0.90;;;;;;;18.55;58.23;100832.72;5005529;28;20129;-80
2023/09/06 04:48:52;;;;;;;5.90;0.80;;;;;;;18.49;57.70;100841.50;5018561;28;20488;-79
2023/09/06 04:51:21;;;;;;;1.58;0.80;;;;;;;18.42;58.77;100832.75;4998295;28;20720;-78
2023/09/06 04:53:49;;;;;;;1.48;0.90;;;;;;;18.36;57.56;100839.75;4997539;28;20427;-78
2023/09/06 04:56:18;;;;;;;1.60;0.80;;;;;;;18.32;58.77;100838.88;5011505;28;20504;-77
2023/09/06 04:58:50;;;;;;;1.75;0.93;;;;;;;18.25;59.60;100838.91;5001581;28;20124;-75
2023/09/06 05:01:18;;;;;;;1.25;0.93;;;;;;;18.16;60.77;100826.66;5000752;28;20050;-75
2023/09/06 05:03:49;;;;;;;1.33;1.05;;;;;;;18.16;63.05;100834.53;4991191;28;20152;-76
2023/09/06 05:06:17;;;;;;;3.75;1.20;;;;;;;18.12;63.02;100836.28;5004300;28;20057;-77
2023/09/06 05:08:46;;;;;;;3.55;0.93;;;;;;;18.08;63.34;100833.69;4998761;28;20151;-76
2023/09/06 05:11:17;;;;;;;1.02;0.73;;;;;;;18.03;62.36;100836.28;5003036;28;20061;-76
2023/09/06 05:13:45;;;;;;;2.88;0.98;;;;;;;18.02;62.34;100839.75;5013844;28;20054;-75
2023/09/06 05:16:14;;;;;;;2.28;1.05;;;;;;;18.01;62.30;100827.56;5002903;28;20054;-76
2023/09/06 05:18:42;;;;;;;1.13;0.90;;;;;;;17.95;61.11;100817.06;5002255;28;20611;-75
2023/09/06 05:21:13;;;;;;;3.75;0.80;;;;;;;17.99;60.18;100835.41;5007203;28;20093;-75
2023/09/06 05:23:41;;;;;;;2.47;0.90;;;;;;;17.97;59.72;100828.44;5007381;28;20455;-74
2023/09/06 05:26:10;;;;;;;2.30;0.98;;;;;;;17.92;59.92;100838.03;5004577;28;20644;-74
2023/09/06 05:28:42;;;;;;;0.98;0.68;;;;;;;17.87;59.49;100834.53;5000692;28;20060;-75
2023/09/06 05:31:12;;;;;;;1.30;0.73;;;;;;;17.82;60.87;100831.03;4992522;28;20566;-76
2023/09/06 05:33:40;;;;;;;2.42;1.00;;;;;;;17.80;59.62;100837.13;4997623;28;20097;-76
2023/09/06 05:36:09;;;;;;;2.22;0.80;;;;;;;17.78;59.48;100830.13;4997545;28;20050;-75
2023/09/06 05:38:39;;;;;;;1.45;0.77;;;;;;;17.73;60.29;100840.59;4997271;28;20054;-76
2023/09/06 05:41:08;;;;;;;1.95;0.80;;;;;;;17.69;59.64;100841.47;5003463;28;20082;-76
2023/09/06 05:43:39;;;;;;;1.02;0.70;;;;;;;17.64;59.71;100837.06;5004305;28;20058;-76
2023/09/06 05:46:07;;;;;;;1.30;0.70;;;;;;;17.62;60.28;100833.59;5003540;28;20396;-78
2023/09/06 05:48:37;;;;;;;2.60;1.20;;;;;;;17.59;59.77;100840.56;5014575;28;20058;-76
2023/09/06 05:51:06;;;;;;;1.67;0.63;;;;;;;17.55;60.30;100843.19;5005175;28;20057;-77
2023/09/06 05:53:34;;;;;;;1.83;1.02;;;;;;;17.52;60.71;100849.28;4992463;28;20484;-77
2023/09/06 05:56:05;;;;;;;2.33;0.70;;;;;;;17.49;61.51;100837.94;5002695;28;20141;-77
2023/09/06 05:58:37;;;;;;;3.33;0.70;;;;;;;17.45;62.75;100846.63;4997678;28;20077;-77
2023/09/06 06:01:08;;;;;;;2.40;0.80;;;;;;;17.41;66.62;100847.47;4997754;28;20104;-76
2023/09/06 06:03:40;;;;;;;4.60;1.05;;;;;;;17.33;66.84;100848.34;5005258;28;20060;-78
2023/09/06 06:06:17;;;;;;;2.75;1.00;;;;;;;17.24;65.92;100840.47;4995195;28;20081;-78
2023/09/06 06:08:45;;;;;;;1.80;0.77;;;;;;;17.19;66.28;100843.94;4998547;28;20056;-78
2023/09/06 06:11:16;;;;;;;1.27;0.93;;;;;;;17.14;66.33;100846.53;5000238;28;20046;-79
2023/09/06 06:13:44;;;;;;;1.40;0.65;;;;;;;17.12;65.89;100838.69;4994749;28;20199;-78
2023/09/06 06:16:13;;;;;;;0.88;0.80;;;;;;;17.07;64.96;100834.31;5006258;28;20058;-77
2023/09/06 06:18:42;;;;;;;0.90;0.60;;;;;;;17.06;65.12;100841.25;5001760;28;20128;-78
2023/09/06 06:21:11;;;;;;;1.17;0.80;;;;;;;17.03;65.51;100830.81;4998590;28;20062;-79
2023/09/06 06:23:43;;;;;;;2.13;0.90;;;;;;;17.03;64.37;100833.41;5002255;28;20056;-79
2023/09/06 06:26:15;;;;;;;3.00;0.90;;;;;;;17.03;65.04;100838.63;5002450;28;20681;-80
2023/09/06 06:28:45;;;;;;;1.10;0.80;;;;;;;17.02;64.97;100841.25;4996101;28;20124;-79
2023/09/06 06:31:14;;;;;;;4.07;0.73;;;;;;;16.99;65.76;100836.88;5004204;28;20338;-79
2023/09/06 06:33:43;;;;;;;1.67;0.70;;;;;;;16.93;65.83;100842.97;4998191;28;20169;-78
2023/09/06 06:36:11;;;;;;;2.05;0.73;;;;;;;16.91;65.72;100839.47;5003811;28;20460;-79
2023/09/06 06:38:40;;;;;;;1.42;0.88;;;;;;;16.90;65.33;100844.66;5000233;28;20054;-78
2023/09/06 06:41:20;;;;;;;1.50;0.70;;;;;;;16.85;65.57;100838.56;4998886;28;20046;-79
2023/09/06 06:43:55;;;;;;;1.65;1.00;;;;;;;16.82;66.40;100849.88;5005642;28;20048;-77
2023/09/06 06:46:29;;;;;;;1.58;0.85;;;;;;;16.79;67.65;100849.88;5011606;28;20049;-79
2023/09/06 06:48:58;;;;;;;1.80;0.82;;;;;;;16.73;66.83;100847.19;5024218;28;20071;-79
2023/09/06 06:51:40;;;;;;;6.22;0.80;;;;;;;16.66;67.03;100853.22;4994564;28;20050;-78
2023/09/06 06:54:09;;;;;;;3.80;0.77;;;;;;;16.63;67.39;100853.19;4999772;28;20045;-79
2023/09/06 06:56:38;;;;;;;1.48;0.98;;;;;;;16.60;67.62;100855.78;5001583;28;20425;-78
2023/09/06 06:59:09;;;;;;;1.27;0.98;;;;;;;16.53;68.13;100850.53;4993192;28;20057;-79
2023/09/06 07:01:40;;;;;;;2.55;0.80;;;;;;;16.50;68.68;100852.25;5000887;28;20050;-79
2023/09/06 07:04:08;;;;;;;1.88;0.77;;;;;;;16.49;68.54;100856.63;5002291;28;20522;-79
2023/09/06 07:06:37;;;;;;;1.08;0.55;;;;;;;16.44;68.15;100853.06;4999953;28;20503;-80
2023/09/06 07:09:06;;;;;;;2.55;0.80;;;;;;;16.37;68.02;100840.84;4999582;28;20815;-79
2023/09/06 07:11:40;;;;;;;2.65;0.85;;;;;;;16.28;68.57;100843.38;5005488;28;20053;-79
2023/09/06 07:14:10;;;;;;;3.53;1.15;;;;;;;16.21;71.92;100849.44;4992680;28;20501;-79
2023/09/06 07:16:40;;;;;;;1.77;0.85;;;;;;;16.15;74.39;100846.75;4999332;28;20050;-79
2023/09/06 07:19:09;;;;;;;3.70;0.60;;;;;;;16.11;74.08;100844.13;5003036;28;20104;-78
2023/09/06 07:21:37;;;;;;;3.85;0.73;;;;;;;16.12;73.42;100840.66;4997332;28;20111;-79
2023/09/06 07:24:15;;;;;;;1.77;1.05;;;;;;;16.12;72.45;100835.41;5005251;28;20069;-78
2023/09/06 07:26:44;;;;;;;2.20;1.00;;;;;;;16.10;72.39;100841.50;5003238;28;20145;-78
2023/09/06 07:29:14;;;;;;;1.23;0.68;;;;;;;16.05;73.01;100844.06;5004083;28;20607;-79
2023/09/06 07:31:42;;;;;;;5.88;1.00;;;;;;;16.02;73.84;100849.28;4997745;28;20507;-79
2023/09/06 07:34:11;;;;;;;2.33;0.85;;;;;;;15.99;73.11;100838.81;5002181;28;20177;-77
2023/09/06 07:36:40;;;;;;;3.58;1.10;;;;;;;15.96;72.46;100838.78;5005722;28;20054;-78
2023/09/06 07:39:08;;;;;;;2.35;0.95;;;;;;;15.94;72.26;100842.22;5003035;28;20641;-78
2023/09/06 07:41:37;;;;;;;3.58;0.85;;;;;;;15.91;72.51;100846.56;5002227;28;20073;-78
2023/09/06 07:44:06;;;;;;;8.32;1.00;;;;;;;15.89;72.82;100844.81;5004191;28;20054;-79
2023/09/06 07:46:36;;;;;;;1.50;0.68;;;;;;;15.86;73.73;100847.41;5003280;28;20068;-76
2023/09/06 07:49:05;;;;;;;2.67;1.35;;;;;;;15.81;74.54;100836.91;4999262;28;20486;-78
2023/09/06 07:51:33;;;;;;;1.42;0.95;;;;;;;15.73;74.33;100841.16;5005102;28;20050;-78
2023/09/06 07:54:02;;;;;;;0.73;0.68;;;;;;;15.63;74.70;100845.41;5001426;28;20057;-77
2023/09/06 07:56:34;;;;;;;4.22;0.77;;;;;;;15.56;74.75;100848.81;5002275;28;20501;-78
2023/09/06 07:59:02;;;;;;;1.97;1.00;;;;;;;15.53;75.19;100848.78;5006328;28;20065;-77
2023/09/06 08:01:31;;;;;;;3.50;0.93;;;;;;;15.51;74.57;100840.06;5005434;28;20042;-77
2023/09/06 08:04:02;;;;;;;3.08;1.00;;;;;;;15.51;75.65;100842.69;5013381;28;20072;-77
2023/09/06 08:06:30;;;;;;;2.50;0.90;;;;;;;15.50;75.12;100844.38;5005025;28;20451;-78
2023/09/06 08:08:59;;;;;;;1.23;0.70;;;;;;;15.49;74.98;100849.59;4996748;28;20051;-76
2023/09/06 08:11:28;;;;;;;1.75;1.02;;;;;;;15.47;75.59;100843.50;5000101;28;20160;-77
2023/09/06 08:13:57;;;;;;;3.38;1.38;;;;;;;15.46;74.98;100844.34;5003758;28;20062;-76
2023/09/06 08:16:25;;;;;;;1.63;0.95;;;;;;;15.41;74.73;100843.41;5004662;28;20093;-76
2023/09/06 08:18:55;;;;;;;1.45;0.60;;;;;;;15.35;74.10;100849.44;5002118;28;20512;-78
2023/09/06 08:21:25;;;;;;;1.00;0.70;;;;;;;15.29;74.55;100839.81;5005809;28;20053;-77
2023/09/06 08:23:54;;;;;;;1.02;0.63;;;;;;;15.27;75.93;100841.53;5005747;28;20126;-75
2023/09/06 08:26:23;;;;;;;0.75;0.60;;;;;;;15.24;76.01;100841.50;4999187;28;20591;-77
2023/09/06 08:28:51;;;;;;;1.58;1.00;;;;;;;15.23;76.67;100841.47;5002312;28;20489;-76
2023/09/06 08:31:23;;;;;;;2.38;0.90;;;;;;;15.17;76.21;100844.88;5001479;28;20057;-76
2023/09/06 08:33:51;;;;;;;2.67;1.02;;;;;;;15.14;76.77;100849.19;5008405;28;20045;-75
2023/09/06 08:36:20;;;;;;;2.67;0.82;;;;;;;15.08;76.42;100845.66;5003401;28;20432;-77
2023/09/06 08:38:50;;;;;;;1.70;0.73;;;;;;;15.01;77.89;100838.63;5003415;28;20550;-77
2023/09/06 08:41:24;;;;;;;3.42;1.10;;;;;;;15.08;77.84;100852.59;5004404;28;20126;-77
2023/09/06 08:43:54;;;;;;;5.22;1.02;;;;;;;15.06;78.09;100852.56;5005759;28;20100;-78
2023/09/06 08:46:29;;;;;;;3.95;1.10;;;;;;;15.05;78.32;100850.84;5005728;28;20054;-79
2023/09/06 08:48:58;;;;;;;4.22;0.90;;;;;;;15.02;78.32;100849.91;4999919;28;20077;-77
2023/09/06 08:51:35;;;;;;;1.98;0.88;;;;;;;15.01;77.83;100855.97;5005790;28;20050;-78
2023/09/06 08:54:06;;;;;;;1.60;0.90;;;;;;;14.99;78.31;100852.47;5002866;28;20054;-79
2023/09/06 08:56:34;;;;;;;3.67;0.90;;;;;;;14.96;78.78;100853.31;5009888;28;20062;-78
2023/09/06 08:59:03;;;;;;;1.90;0.77;;;;;;;14.95;78.86;100851.56;5008104;28;20488;-77
2023/09/06 09:01:32;;;;;;;1.85;0.73;;;;;;;14.94;78.78;100854.16;5009229;28;20054;-77
2023/09/06 09:04:00;;;;;;;2.25;0.95;;;;;;;14.92;79.16;100848.03;5007676;28;20507;-77
2023/09/06 09:06:29;;;;;;;2.72;1.00;;;;;;;14.90;79.45;100852.34;5008109;28;20271;-78
2023/09/06 09:09:13;;;;;;;3.53;1.33;;;;;;;14.88;80.21;100845.38;5008002;28;20400;-76
2023/09/06 09:11:50;;;;;;;4.80;0.75;;;;;;;14.84;80.11;100843.63;5009807;28;20480;-77
2023/09/06 09:14:41;;;;;;;1.40;0.88;;;;;;;14.80;79.92;100847.03;5009989;28;20096;-77
2023/09/06 09:17:09;;;;;;;1.77;1.00;;;;;;;14.78;79.60;100846.13;4981356;28;20055;-80
2023/09/06 09:19:41;;;;;;;1.08;0.80;;;;;;;14.74;80.08;100844.31;4983376;28;20137;-78
2023/09/06 09:22:10;;;;;;;1.05;0.85;;;;;;;14.68;81.30;100852.03;4991443;28;20692;-78
2023/09/06 09:24:39;;;;;;;1.13;0.80;;;;;;;14.64;81.87;100852.88;4985492;28;20113;-76
2023/09/06 09:27:10;;;;;;;3.90;0.80;;;;;;;14.62;82.00;100858.06;4987376;28;20577;-77
2023/09/06 09:29:41;;;;;;;4.38;1.23;;;;;;;14.57;81.45;100857.13;4988112;28;20039;-78
2023/09/06 09:32:11;;;;;;;1.25;0.73;;;;;;;14.50;81.82;100856.94;4991677;28;20050;-79
2023/09/06 09:34:41;;;;;;;1.27;0.90;;;;;;;14.44;82.74;100855.16;4985691;28;20081;-80
2023/09/06 09:37:11;;;;;;;1.98;0.80;;;;;;;14.39;83.48;100852.47;4987165;28;20051;-79
2023/09/06 09:39:40;;;;;;;4.53;1.02;;;;;;;14.40;82.73;100853.34;4992218;28;20053;-79
2023/09/06 09:42:13;;;;;;;1.00;0.90;;;;;;;14.36;82.36;100852.44;4985125;28;20489;-78
2023/09/06 09:44:42;;;;;;;1.23;0.57;;;;;;;14.36;83.03;100857.63;4987279;28;20055;-79
2023/09/06 09:47:13;;;;;;;1.83;0.90;;;;;;;14.35;83.57;100857.59;4983245;28;20046;-79
2023/09/06 09:49:42;;;;;;;1.88;0.80;;;;;;;14.32;83.72;100850.63;4986914;28;20413;-79
2023/09/06 09:52:16;;;;;;;3.85;1.05;;;;;;;14.31;83.28;100850.59;4985710;28;20061;-79
2023/09/06 09:54:50;;;;;;;2.05;0.98;;;;;;;14.29;83.88;100845.34;4988135;28;20077;-78
2023/09/06 09:57:23;;;;;;;1.63;1.00;;;;;;;14.27;83.39;100854.00;4985079;28;20382;-79
2023/09/06 09:59:54;;;;;;;3.88;1.08;;;;;;;14.25;84.24;100843.59;4982837;28;20600;-79
2023/09/06 10:02:23;;;;;;;1.15;0.63;;;;;;;14.24;84.09;100842.69;4982476;28;20057;-77
2023/09/06 10:04:53;;;;;;;1.08;0.70;;;;;;;14.23;84.23;100855.69;4988985;28;20054;-77
2023/09/06 10:07:24;;;;;;;3.58;1.00;;;;;;;14.20;83.48;100845.22;4989156;28;20199;-77
2023/09/06 10:09:55;;;;;;;2.30;0.88;;;;;;;14.16;83.88;100853.84;4987946;28;20062;-79
2023/09/06 10:12:28;;;;;;;1.63;0.73;;;;;;;14.10;84.71;100853.72;4983941;28;20583;-78
2023/09/06 10:14:58;;;;;;;0.65;0.63;;;;;;;14.10;84.12;100854.59;4986282;28;20299;-79
2023/09/06 10:17:27;;;;;;;4.43;0.98;;;;;;;14.09;84.66;100854.56;4990183;28;20048;-78
2023/09/06 10:19:56;;;;;;;4.13;1.23;;;;;;;14.04;85.15;100855.38;4986314;28;20061;-77
2023/09/06 10:22:25;;;;;;;5.25;1.10;;;;;;;14.02;84.38;100849.28;4983756;28;20050;-77
2023/09/06 10:24:54;;;;;;;1.95;0.82;;;;;;;13.91;84.11;100847.34;4985320;28;20057;-78
2023/09/06 10:27:32;;;;;;;1.95;1.30;;;;;;;13.94;84.82;100857.78;4982179;28;20057;-77
2023/09/06 10:30:10;;;;;;;3.10;1.20;;;;;;;13.89;85.02;100849.91;4986628;28;20057;-77
2023/09/06 10:32:43;;;;;;;1.88;1.00;;;;;;;13.79;85.16;100842.81;4981640;28;20749;-76
2023/09/06 10:35:23;;;;;;;2.17;1.15;;;;;;;13.86;85.33;100860.28;4985757;28;20101;-76
2023/09/06 10:38:06;;;;;;;3.10;1.00;;;;;;;13.85;84.96;100857.63;4987694;28;20047;-77
2023/09/06 10:41:11;;;;;;;0.90;0.80;;;;;;;13.81;85.74;100860.19;4986793;28;20748;-77
2023/09/06 10:44:04;;;;;;;2.53;1.10;;;;;;;13.76;85.42;100863.53;4976869;28;21079;-77
2023/09/06 10:46:36;;;;;;;2.38;1.20;;;;;;;13.70;86.12;100853.91;4982899;28;20173;-77
2023/09/06 10:49:22;;;;;;;2.72;0.88;;;;;;;13.62;85.62;100843.34;4982000;28;20061;-77
2023/09/06 10:52:04;;;;;;;6.53;1.40;;;;;;;13.62;85.90;100853.75;4982905;28;20069;-77
2023/09/06 10:54:36;;;;;;;1.02;0.70;;;;;;;13.57;86.54;100860.59;4978666;28;20677;-77
2023/09/06 10:57:07;;;;;;;2.17;1.07;;;;;;;13.54;86.75;100860.56;4985030;28;20085;-77
2023/09/06 10:59:40;;;;;;;1.88;0.95;;;;;;;13.53;86.50;100861.38;4983863;28;20674;-77
2023/09/06 11:02:18;;;;;;;4.93;1.10;;;;;;;13.50;87.26;100861.34;4984192;28;20437;-77
2023/09/06 11:04:47;;;;;;;4.30;1.48;;;;;;;13.45;87.53;100860.38;4984141;28;20485;-76
2023/09/06 11:07:16;;;;;;;3.10;1.30;;;;;;;13.42;86.63;100862.91;4982805;28;20742;-77
2023/09/06 11:09:45;;;;;;;3.38;1.10;;;;;;;13.39;87.51;100862.84;4987128;28;20052;-77
2023/09/06 11:12:15;;;;;;;1.92;1.05;;;;;;;13.35;87.73;100859.34;4987566;28;20112;-77
2023/09/06 11:14:47;;;;;;;4.47;0.93;;;;;;;13.33;87.55;100857.53;4996527;28;20069;-77
2023/09/06 11:17:26;;;;;;;3.03;1.05;;;;;;;13.31;88.25;100860.09;5007596;28;20388;-78
2023/09/06 11:19:55;;;;;;;2.20;0.90;;;;;;;13.28;88.78;100857.44;5019999;28;20048;-79
2023/09/06 11:22:24;;;;;;;1.67;0.90;;;;;;;13.24;89.08;100857.31;5032064;28;20077;-78
2023/09/06 11:24:59;;;;;;;1.60;0.77;;;;;;;13.17;89.43;100856.28;5030121;28;20053;-78
2023/09/06 11:27:33;;;;;;;5.10;0.88;;;;;;;13.12;89.41;100858.81;5022548;28;20109;-78
2023/09/06 11:30:10;;;;;;;1.58;0.85;;;;;;;13.10;89.90;100859.63;5001111;28;20567;-78
2023/09/06 11:32:41;;;;;;;3.00;0.90;;;;;;;13.09;89.30;100850.97;5007477;28;20046;-78
2023/09/06 11:35:10;;;;;;;1.55;0.65;;;;;;;13.10;89.13;100859.63;5002807;28;20050;-79
2023/09/06 11:37:44;;;;;;;2.65;1.08;;;;;;;13.10;87.99;100862.22;5004966;28;20498;-80
2023/09/06 11:40:21;;;;;;;2.28;0.80;;;;;;;13.02;87.73;100862.06;4996912;28;20046;-79
2023/09/06 11:42:53;;;;;;;2.50;0.75;;;;;;;13.01;88.90;100860.31;4998536;28;20081;-78